Time;durP1;ratioP1;P1;durP2;ratioP2;P2;SDS_P1;SDS_P2;PMS_P1;PMS_P2;Temp;Humidity;BMP_temperature;BMP_pressure;BME280_temperature;BME280_humidity;BME280_pressure;Samples;Min_cycle;Max_cycle;Signal;HPM_P1;HPM_P2
2023/12/25 00:01:47;;;;;;;1999.90;999.90;;;11.90;99.90;;;;;;5034060;28;20196;-75
2023/12/25 00:04:13;;;;;;;1999.90;999.90;;;11.80;99.90;;;;;;5034486;28;20437;-76
2023/12/25 00:06:39;;;;;;;1999.90;999.90;;;11.80;99.90;;;;;;5032616;28;20423;-76
2023/12/25 00:09:04;;;;;;;1999.90;999.90;;;11.80;99.90;;;;;;5033239;28;20640;-75
2023/12/25 00:11:30;;;;;;;1999.90;999.90;;;11.80;99.90;;;;;;5032685;28;20290;-76
2023/12/25 00:13:57;;;;;;;1999.90;999.90;;;11.80;99.90;;;;;;5033366;28;20203;-76
2023/12/25 00:16:26;;;;;;;1999.90;999.90;;;11.90;99.90;;;;;;5022259;28;20192;-75
2023/12/25 00:18:51;;;;;;;1999.90;999.90;;;11.90;99.90;;;;;;5016478;28;20493;-76
2023/12/25 00:21:18;;;;;;;1999.90;999.90;;;11.90;99.90;;;;;;5019869;28;20487;-75
2023/12/25 00:23:44;;;;;;;1999.90;999.90;;;11.90;99.90;;;;;;5035057;28;20423;-76
2023/12/25 00:26:10;;;;;;;1999.90;999.90;;;11.90;99.90;;;;;;5034035;28;20433;-76
2023/12/25 00:28:36;;;;;;;1999.90;999.90;;;12.00;99.90;;;;;;5035942;28;20403;-75
2023/12/25 00:31:02;;;;;;;1999.90;999.90;;;11.90;99.90;;;;;;5035658;28;20195;-76
2023/12/25 00:33:27;;;;;;;1999.90;999.90;;;11.90;99.90;;;;;;5035335;28;20187;-76
2023/12/25 00:35:53;;;;;;;1999.90;999.90;;;11.90;99.90;;;;;;5034874;28;20416;-77
2023/12/25 00:38:18;;;;;;;1999.90;999.90;;;11.80;99.90;;;;;;5033801;28;20661;-76
2023/12/25 00:40:44;;;;;;;1999.90;999.90;;;11.80;99.90;;;;;;5035171;28;20180;-76
2023/12/25 00:43:09;;;;;;;1999.90;999.90;;;11.80;99.90;;;;;;5034215;28;20171;-75
2023/12/25 00:45:35;;;;;;;1999.90;999.90;;;11.80;99.90;;;;;;5034617;28;20179;-77
2023/12/25 00:48:01;;;;;;;1999.90;999.90;;;11.70;99.90;;;;;;5035653;28;20233;-76
2023/12/25 00:50:26;;;;;;;1999.90;999.90;;;11.80;99.90;;;;;;5035131;28;20927;-77
2023/12/25 00:52:52;;;;;;;1999.90;999.90;;;11.70;99.90;;;;;;5034604;28;20200;-76
2023/12/25 00:55:17;;;;;;;1999.90;999.90;;;11.80;99.90;;;;;;5034974;28;20334;-76
2023/12/25 00:57:43;;;;;;;1999.90;999.90;;;11.80;99.90;;;;;;5034264;28;20187;-76
2023/12/25 01:00:09;;;;;;;1999.90;999.90;;;11.70;99.90;;;;;;5031390;28;20175;-76
2023/12/25 01:02:35;;;;;;;1999.90;999.90;;;11.80;99.90;;;;;;5031529;28;20199;-76
2023/12/25 01:05:01;;;;;;;1999.90;999.90;;;11.80;99.90;;;;;;5031498;28;20918;-76
2023/12/25 01:07:26;;;;;;;1999.90;999.90;;;11.80;99.90;;;;;;5018312;28;20194;-76
2023/12/25 01:09:52;;;;;;;1999.90;999.90;;;11.80;99.90;;;;;;5031595;28;20190;-76
2023/12/25 01:12:17;;;;;;;1999.90;999.90;;;11.80;99.90;;;;;;5029904;28;20551;-76
2023/12/25 01:14:44;;;;;;;1999.90;999.90;;;11.80;99.90;;;;;;5017594;28;20737;-76
2023/12/25 01:17:10;;;;;;;1999.90;999.90;;;11.80;99.90;;;;;;5022958;28;20202;-76
2023/12/25 01:19:35;;;;;;;1999.90;999.90;;;11.80;99.90;;;;;;5021561;28;20407;-75
2023/12/25 01:22:01;;;;;;;1999.90;999.90;;;11.80;99.90;;;;;;5016681;28;20450;-76
2023/12/25 01:24:27;;;;;;;1999.90;999.90;;;11.80;99.90;;;;;;5035179;28;20565;-76
2023/12/25 01:26:52;;;;;;;1999.90;999.90;;;11.80;99.90;;;;;;5035356;28;20779;-76
2023/12/25 01:29:18;;;;;;;1999.90;999.90;;;11.80;99.90;;;;;;5035231;28;20194;-76
2023/12/25 01:31:44;;;;;;;1999.90;999.90;;;11.80;99.90;;;;;;5034847;28;20196;-76
2023/12/25 01:34:09;;;;;;;1999.90;999.90;;;11.80;99.90;;;;;;5034997;28;20670;-77
2023/12/25 01:36:35;;;;;;;1999.90;999.90;;;11.80;99.90;;;;;;5036007;28;20168;-75
2023/12/25 01:39:01;;;;;;;1999.90;999.90;;;11.80;99.90;;;;;;5034828;28;20175;-75
2023/12/25 01:41:27;;;;;;;1999.90;999.90;;;11.80;99.90;;;;;;5037661;28;20491;-76
2023/12/25 01:43:53;;;;;;;1999.90;999.90;;;11.90;99.90;;;;;;5037964;28;20418;-75
2023/12/25 01:46:18;;;;;;;1999.90;999.90;;;11.90;99.90;;;;;;5036757;28;20179;-76
2023/12/25 01:48:49;;;;;;;1999.90;999.90;;;11.80;99.90;;;;;;5037342;28;20188;-76
2023/12/25 01:51:15;;;;;;;1999.90;999.90;;;11.80;99.90;;;;;;5037710;28;20192;-76
2023/12/25 01:53:40;;;;;;;1999.90;999.90;;;11.80;99.90;;;;;;5035441;28;20454;-75
2023/12/25 01:56:06;;;;;;;1999.90;999.90;;;11.80;99.90;;;;;;5021081;28;20188;-76
2023/12/25 01:58:32;;;;;;;1999.90;999.90;;;;;;;;;;5018317;28;20171;-76
2023/12/25 02:00:58;;;;;;;1999.90;999.90;;;11.70;99.90;;;;;;5020147;28;20204;-75
2023/12/25 02:03:23;;;;;;;1999.90;999.90;;;11.80;99.90;;;;;;5037572;28;21146;-76
2023/12/25 02:05:50;;;;;;;1999.90;999.90;;;11.80;99.90;;;;;;5037487;28;20183;-75
2023/12/25 02:08:17;;;;;;;1999.90;999.90;;;11.80;99.90;;;;;;5029339;28;20179;-76
2023/12/25 02:10:42;;;;;;;1999.90;999.90;;;12.30;99.90;;;;;;5035728;28;20419;-75
2023/12/25 02:13:08;;;;;;;1999.90;999.90;;;11.80;99.90;;;;;;5037159;28;20417;-77
2023/12/25 02:15:34;;;;;;;1999.90;999.90;;;11.90;99.90;;;;;;5037948;28;20174;-76
2023/12/25 02:18:01;;;;;;;1999.90;999.90;;;11.70;99.90;;;;;;5037418;28;20161;-76
2023/12/25 02:20:26;;;;;;;1999.90;999.90;;;11.60;99.90;;;;;;5036023;28;20188;-76
2023/12/25 02:22:53;;;;;;;1999.90;999.90;;;11.60;99.90;;;;;;5028141;28;20447;-75
2023/12/25 02:25:30;;;;;;;1999.90;999.90;;;11.60;99.90;;;;;;5025013;28;20270;-75
2023/12/25 02:27:55;;;;;;;1999.90;999.90;;;11.50;99.90;;;;;;5034221;28;20409;-76
2023/12/25 02:30:21;;;;;;;1999.90;999.90;;;11.50;99.90;;;;;;5031357;28;20783;-75
2023/12/25 02:32:47;;;;;;;1999.90;999.90;;;11.50;99.90;;;;;;5033434;28;20274;-77
2023/12/25 02:35:12;;;;;;;1999.90;999.90;;;11.50;99.90;;;;;;5030482;28;20203;-76
2023/12/25 02:37:38;;;;;;;1999.90;999.90;;;11.40;99.90;;;;;;5021513;28;20164;-77
2023/12/25 02:40:05;;;;;;;1999.90;999.90;;;11.40;99.90;;;;;;5021121;28;20175;-76
2023/12/25 02:42:31;;;;;;;1999.90;999.90;;;11.40;99.90;;;;;;5033563;28;20191;-74
2023/12/25 02:44:56;;;;;;;1999.90;999.90;;;11.30;99.90;;;;;;5033734;28;20415;-75
2023/12/25 02:47:22;;;;;;;1999.90;999.90;;;11.30;99.90;;;;;;5015299;28;20212;-75
2023/12/25 02:49:47;;;;;;;1999.90;999.90;;;11.30;99.90;;;;;;5013975;28;20171;-74
2023/12/25 02:52:13;;;;;;;1999.90;999.90;;;11.30;99.90;;;;;;5013686;28;20198;-74
2023/12/25 02:54:38;;;;;;;1999.90;999.90;;;11.30;99.90;;;;;;5013848;28;20197;-74
2023/12/25 02:57:04;;;;;;;1999.90;999.90;;;11.30;99.90;;;;;;5013854;28;20176;-74
2023/12/25 02:59:30;;;;;;;1999.90;999.90;;;11.40;99.90;;;;;;5013817;28;20192;-75
2023/12/25 03:01:55;;;;;;;1999.90;999.90;;;11.40;99.90;;;;;;5013511;28;20188;-75
2023/12/25 03:04:21;;;;;;;1999.90;999.90;;;11.40;99.90;;;;;;5013676;28;20176;-76
2023/12/25 03:06:46;;;;;;;1999.90;999.90;;;11.40;99.90;;;;;;5013722;28;20192;-75
2023/12/25 03:09:12;;;;;;;1999.90;999.90;;;11.50;99.90;;;;;;5013683;28;20229;-75
2023/12/25 03:11:37;;;;;;;1999.90;999.90;;;11.50;99.90;;;;;;5030290;28;20261;-75
2023/12/25 03:14:03;;;;;;;1999.90;999.90;;;11.50;99.90;;;;;;5017323;28;20597;-76
2023/12/25 03:16:29;;;;;;;1999.90;999.90;;;11.50;99.90;;;;;;5013512;28;20164;-74
2023/12/25 03:18:54;;;;;;;1999.90;999.90;;;11.50;99.90;;;;;;5013548;28;20659;-74
2023/12/25 03:21:21;;;;;;;1999.90;999.90;;;11.50;99.90;;;;;;5013038;28;20257;-74
2023/12/25 03:23:47;;;;;;;1999.90;999.90;;;11.60;99.90;;;;;;5013520;28;20267;-74
2023/12/25 03:26:12;;;;;;;1999.90;999.90;;;11.60;99.90;;;;;;5013453;28;20515;-74
2023/12/25 03:28:38;;;;;;;1999.90;999.90;;;11.60;99.90;;;;;;5013283;28;20499;-75
2023/12/25 03:31:04;;;;;;;1999.90;999.90;;;11.60;99.90;;;;;;5012999;28;20249;-75
2023/12/25 03:33:30;;;;;;;1999.90;999.90;;;11.60;99.90;;;;;;5013345;28;20966;-74
2023/12/25 03:35:55;;;;;;;1999.90;999.90;;;11.70;99.90;;;;;;5013278;28;20407;-75
2023/12/25 03:38:21;;;;;;;1999.90;999.90;;;11.70;99.90;;;;;;5013142;28;20180;-74
2023/12/25 03:40:47;;;;;;;1999.90;999.90;;;11.70;99.90;;;;;;5012662;28;20165;-74
2023/12/25 03:43:12;;;;;;;1999.90;999.90;;;11.70;99.90;;;;;;5018785;28;20190;-74
2023/12/25 03:45:38;;;;;;;1999.90;999.90;;;11.60;99.90;;;;;;5032633;28;20196;-75
2023/12/25 03:48:04;;;;;;;1999.90;999.90;;;11.60;99.90;;;;;;5032680;28;20701;-74
2023/12/25 03:50:29;;;;;;;1999.90;999.90;;;11.60;99.90;;;;;;5032360;28;20171;-76
2023/12/25 03:52:55;;;;;;;1999.90;999.90;;;11.60;99.90;;;;;;5032524;28;20406;-75
2023/12/25 03:55:21;;;;;;;1999.90;999.90;;;11.70;99.90;;;;;;5032605;28;20273;-74
2023/12/25 03:57:46;;;;;;;1999.90;999.90;;;11.70;99.90;;;;;;5032931;28;20168;-74
2023/12/25 04:00:12;;;;;;;1999.90;999.90;;;11.80;99.90;;;;;;5032643;28;20247;-76
2023/12/25 04:02:38;;;;;;;1999.90;999.90;;;11.90;99.90;;;;;;5033098;28;20202;-76
2023/12/25 04:05:04;;;;;;;1999.90;999.90;;;11.90;99.90;;;;;;5033209;28;20411;-75
2023/12/25 04:07:30;;;;;;;1999.90;999.90;;;11.90;99.90;;;;;;5033069;28;20175;-77
2023/12/25 04:09:56;;;;;;;1999.90;999.90;;;12.00;99.90;;;;;;5033171;28;20411;-75
2023/12/25 04:12:22;;;;;;;1999.90;999.90;;;12.00;99.90;;;;;;5033168;28;20195;-75
2023/12/25 04:14:47;;;;;;;1999.90;999.90;;;12.00;99.90;;;;;;5032434;28;20458;-75
2023/12/25 04:17:13;;;;;;;1999.90;999.90;;;12.00;99.90;;;;;;5033268;28;20175;-74
2023/12/25 04:19:40;;;;;;;1999.90;999.90;;;12.00;99.90;;;;;;5033639;28;20169;-76
2023/12/25 04:22:06;;;;;;;1999.90;999.90;;;12.10;99.90;;;;;;5033003;28;20630;-76
2023/12/25 04:24:31;;;;;;;1999.90;999.90;;;12.00;99.90;;;;;;5032951;28;20442;-75
2023/12/25 04:26:57;;;;;;;1999.90;999.90;;;12.00;99.90;;;;;;5034914;28;20175;-76
2023/12/25 04:29:22;;;;;;;1999.90;999.90;;;12.00;99.90;;;;;;5034432;28;20195;-76
2023/12/25 04:31:49;;;;;;;1999.90;999.90;;;12.10;99.90;;;;;;5033935;28;20195;-76
2023/12/25 04:34:14;;;;;;;1999.90;999.90;;;12.10;99.90;;;;;;5032038;28;20192;-76
2023/12/25 04:36:40;;;;;;;1999.90;999.90;;;12.10;99.90;;;;;;5032005;28;20402;-75
2023/12/25 04:39:06;;;;;;;1999.90;999.90;;;12.10;99.90;;;;;;5031913;28;20183;-75
2023/12/25 04:41:31;;;;;;;1999.90;999.90;;;12.10;99.90;;;;;;5031542;28;20188;-75
2023/12/25 04:43:57;;;;;;;1999.90;999.90;;;12.10;99.90;;;;;;5031792;28;20168;-75
2023/12/25 04:46:22;;;;;;;1999.90;999.90;;;12.10;99.90;;;;;;5031837;28;20308;-75
2023/12/25 04:48:48;;;;;;;1999.90;999.90;;;12.10;99.90;;;;;;5032025;28;20702;-75
2023/12/25 04:51:14;;;;;;;1999.90;999.90;;;12.00;99.90;;;;;;5031514;28;20686;-76
2023/12/25 04:53:39;;;;;;;1999.90;999.90;;;11.90;99.90;;;;;;5033108;28;20191;-76
2023/12/25 04:56:10;;;;;;;1999.90;999.90;;;11.90;99.90;;;;;;5035947;28;20407;-74
2023/12/25 04:58:35;;;;;;;1999.90;999.90;;;11.80;99.90;;;;;;5035898;28;20245;-75
2023/12/25 05:01:01;;;;;;;1999.90;999.90;;;11.70;99.90;;;;;;5035587;28;20572;-76
2023/12/25 05:03:26;;;;;;;1999.90;999.90;;;11.60;99.90;;;;;;5035733;28;20174;-74
2023/12/25 05:05:52;;;;;;;1999.90;999.90;;;11.60;99.90;;;;;;5035772;28;20163;-73
2023/12/25 05:08:18;;;;;;;1999.90;999.90;;;11.50;99.90;;;;;;5035672;28;20165;-72
2023/12/25 05:10:44;;;;;;;1999.90;999.90;;;11.40;99.90;;;;;;5035365;28;20553;-73
2023/12/25 05:13:10;;;;;;;1999.90;999.90;;;11.40;99.90;;;;;;5035419;28;20417;-73
2023/12/25 05:15:35;;;;;;;1999.90;999.90;;;11.40;99.90;;;;;;5035578;28;20178;-73
2023/12/25 05:18:01;;;;;;;1999.90;999.90;;;11.30;99.90;;;;;;5035548;28;20437;-73
2023/12/25 05:20:27;;;;;;;1999.90;999.90;;;11.30;99.90;;;;;;5035170;28;20775;-74
2023/12/25 05:22:53;;;;;;;1999.90;999.90;;;11.30;99.90;;;;;;5035293;28;20561;-73
2023/12/25 05:25:18;;;;;;;1999.90;999.90;;;11.30;99.90;;;;;;5035315;28;20413;-73
2023/12/25 05:27:44;;;;;;;1999.90;999.90;;;11.30;99.90;;;;;;5035239;28;20247;-73
2023/12/25 05:30:10;;;;;;;1999.90;999.90;;;11.30;99.90;;;;;;5035319;28;20180;-73
2023/12/25 05:32:36;;;;;;;1999.90;999.90;;;11.30;99.90;;;;;;5035320;28;20286;-73
2023/12/25 05:35:04;;;;;;;1999.90;999.90;;;11.30;99.90;;;;;;5035167;28;20488;-73
2023/12/25 05:37:30;;;;;;;1999.90;999.90;;;11.30;99.90;;;;;;5035258;28;20402;-73
2023/12/25 05:39:55;;;;;;;1999.90;999.90;;;11.30;99.90;;;;;;5035078;28;20436;-73
2023/12/25 05:42:21;;;;;;;1999.90;999.90;;;11.30;99.90;;;;;;5034513;28;20510;-73
2023/12/25 05:44:47;;;;;;;1999.90;999.90;;;11.30;99.90;;;;;;5035063;28;20173;-73
2023/12/25 05:47:13;;;;;;;1999.90;999.90;;;11.20;99.90;;;;;;5034995;28;20172;-73
2023/12/25 05:49:39;;;;;;;1999.90;999.90;;;11.30;99.90;;;;;;5034873;28;20639;-74
2023/12/25 05:52:04;;;;;;;1999.90;999.90;;;11.30;99.90;;;;;;5034658;28;20430;-73
2023/12/25 05:54:30;;;;;;;1999.90;999.90;;;11.30;99.90;;;;;;5034730;28;20824;-73
2023/12/25 05:56:56;;;;;;;1999.90;999.90;;;11.20;99.90;;;;;;5034825;28;20671;-74
2023/12/25 05:59:21;;;;;;;1999.90;999.90;;;11.30;99.90;;;;;;5034761;28;20174;-73
2023/12/25 06:01:47;;;;;;;1999.90;999.90;;;11.20;99.90;;;;;;5034447;28;20647;-73
2023/12/25 06:04:12;;;;;;;1999.90;999.90;;;11.20;99.90;;;;;;5034634;28;20175;-73
2023/12/25 06:06:38;;;;;;;1999.90;999.90;;;11.20;99.90;;;;;;5034649;28;20170;-73
2023/12/25 06:09:03;;;;;;;1999.90;999.90;;;11.20;99.90;;;;;;5034556;28;20206;-74
2023/12/25 06:11:30;;;;;;;1999.90;999.90;;;11.20;99.90;;;;;;5034186;28;20195;-73
2023/12/25 06:13:55;;;;;;;1999.90;999.90;;;11.20;99.90;;;;;;5034621;28;20636;-73
2023/12/25 06:16:21;;;;;;;1999.90;999.90;;;11.20;99.90;;;;;;5034411;28;20492;-74
2023/12/25 06:18:46;;;;;;;1999.90;999.90;;;11.20;99.90;;;;;;5034414;28;20581;-74
2023/12/25 06:21:15;;;;;;;1999.90;999.90;;;11.20;99.90;;;;;;5033983;28;20206;-74
2023/12/25 06:23:40;;;;;;;1999.90;999.90;;;11.20;99.90;;;;;;5034190;28;20269;-75
2023/12/25 06:26:06;;;;;;;1999.90;999.90;;;11.20;99.90;;;;;;5034230;28;20491;-75
2023/12/25 06:28:32;;;;;;;1999.90;999.90;;;11.20;99.90;;;;;;5034248;28;20171;-75
2023/12/25 06:30:57;;;;;;;1999.90;999.90;;;11.20;99.90;;;;;;5033887;28;20199;-75
2023/12/25 06:33:23;;;;;;;1999.90;999.90;;;11.20;99.90;;;;;;5033972;28;20254;-75
2023/12/25 06:35:49;;;;;;;1999.90;999.90;;;11.20;99.90;;;;;;5034103;28;20434;-75
2023/12/25 06:38:14;;;;;;;1999.90;999.90;;;11.10;99.90;;;;;;5034015;28;20169;-76
2023/12/25 06:40:40;;;;;;;1999.90;999.90;;;11.40;99.90;;;;;;5033644;28;20176;-75
2023/12/25 06:43:07;;;;;;;1999.90;999.90;;;11.20;99.90;;;;;;5033945;28;20199;-76
2023/12/25 06:45:32;;;;;;;1999.90;999.90;;;11.10;99.90;;;;;;5033913;28;20163;-75
2023/12/25 06:47:58;;;;;;;1999.90;999.90;;;11.20;99.90;;;;;;5033969;28;20413;-76
2023/12/25 06:50:23;;;;;;;1999.90;999.90;;;11.20;99.90;;;;;;5033599;28;20186;-76
2023/12/25 06:52:49;;;;;;;1999.90;999.90;;;11.20;99.90;;;;;;5033648;28;20277;-77
2023/12/25 06:55:15;;;;;;;1999.90;999.90;;;11.20;99.90;;;;;;5033930;28;20249;-77
2023/12/25 06:57:40;;;;;;;1999.90;999.90;;;11.20;99.90;;;;;;5034499;28;20248;-77
2023/12/25 07:00:06;;;;;;;1999.90;999.90;;;11.20;99.90;;;;;;5034720;28;20175;-78
2023/12/25 07:02:32;;;;;;;1999.90;999.90;;;11.20;99.90;;;;;;5034461;28;20273;-77
2023/12/25 07:04:57;;;;;;;1999.90;999.90;;;11.20;99.90;;;;;;5034907;28;20442;-77
2023/12/25 07:07:23;;;;;;;1999.90;999.90;;;11.20;99.90;;;;;;5034733;28;20179;-76
2023/12/25 07:09:49;;;;;;;1999.90;999.90;;;11.20;99.90;;;;;;5034631;28;20175;-78
2023/12/25 07:12:14;;;;;;;1999.90;999.90;;;11.20;99.90;;;;;;5034234;28;20199;-78
2023/12/25 07:14:42;;;;;;;1999.90;999.90;;;11.20;99.90;;;;;;5034304;28;20194;-77
2023/12/25 07:17:08;;;;;;;1999.90;999.90;;;11.20;99.90;;;;;;5034600;28;20192;-78
2023/12/25 07:19:34;;;;;;;1999.90;999.90;;;11.20;99.90;;;;;;5034576;28;20429;-78
2023/12/25 07:22:01;;;;;;;1999.90;999.90;;;11.20;99.90;;;;;;5034768;28;20922;-77
2023/12/25 07:24:27;;;;;;;1999.90;999.90;;;11.20;99.90;;;;;;5034884;28;20501;-78
2023/12/25 07:26:53;;;;;;;1999.90;999.90;;;11.20;99.90;;;;;;5035558;28;20500;-78
2023/12/25 07:29:18;;;;;;;1999.90;999.90;;;11.20;99.90;;;;;;5035176;28;20495;-77
2023/12/25 07:31:44;;;;;;;1999.90;999.90;;;11.20;99.90;;;;;;5035421;28;20200;-76
2023/12/25 07:34:10;;;;;;;1999.90;999.90;;;11.20;99.90;;;;;;5035541;28;20342;-77
2023/12/25 07:36:35;;;;;;;1999.90;999.90;;;11.20;99.90;;;;;;5035336;28;20446;-77
2023/12/25 07:39:01;;;;;;;1999.90;999.90;;;11.20;99.90;;;;;;5035102;28;20198;-78
2023/12/25 07:41:27;;;;;;;1999.90;999.90;;;11.30;99.90;;;;;;5035654;28;20222;-78
2023/12/25 07:43:52;;;;;;;1999.90;999.90;;;11.20;99.90;;;;;;5035873;28;20243;-77
2023/12/25 07:46:18;;;;;;;1999.90;999.90;;;11.20;99.90;;;;;;5035257;28;20182;-76
2023/12/25 07:48:43;;;;;;;1999.90;999.90;;;11.30;99.90;;;;;;5035816;28;20614;-78
2023/12/25 07:51:09;;;;;;;1999.90;999.90;;;11.30;99.90;;;;;;5035278;28;20658;-78
2023/12/25 07:53:34;;;;;;;1999.90;999.90;;;11.30;99.90;;;;;;5035676;28;20231;-78
2023/12/25 07:56:00;;;;;;;1999.90;999.90;;;11.30;99.90;;;;;;5035866;28;20521;-76
2023/12/25 07:58:26;;;;;;;1999.90;999.90;;;11.30;99.90;;;;;;5035324;28;20246;-77
2023/12/25 08:00:52;;;;;;;1999.90;999.90;;;11.30;99.90;;;;;;5035340;28;20196;-77
2023/12/25 08:03:17;;;;;;;1999.90;999.90;;;11.30;99.90;;;;;;5035478;28;20175;-77
2023/12/25 08:05:43;;;;;;;1999.90;999.90;;;11.30;99.90;;;;;;5035859;28;20501;-77
2023/12/25 08:08:09;;;;;;;1999.90;999.90;;;11.30;99.90;;;;;;5035461;28;20186;-76
2023/12/25 08:10:34;;;;;;;1999.90;999.90;;;11.50;99.90;;;;;;5034427;28;20244;-76
2023/12/25 08:13:02;;;;;;;1999.90;999.90;;;11.40;99.90;;;;;;5034827;28;20222;-78
2023/12/25 08:15:28;;;;;;;1999.90;999.90;;;11.40;99.90;;;;;;5033778;28;20570;-78
2023/12/25 08:17:54;;;;;;;1999.90;999.90;;;11.40;99.90;;;;;;5033953;28;20414;-77
2023/12/25 08:20:20;;;;;;;1999.90;999.90;;;11.50;99.90;;;;;;5033869;28;20414;-77
2023/12/25 08:22:45;;;;;;;1999.90;999.90;;;11.50;99.90;;;;;;5034080;28;20442;-78
2023/12/25 08:25:11;;;;;;;1999.90;999.90;;;11.60;99.90;;;;;;5034838;28;20302;-77
2023/12/25 08:27:36;;;;;;;1999.90;999.90;;;11.60;99.90;;;;;;5033546;28;20183;-76
2023/12/25 08:30:03;;;;;;;1999.90;999.90;;;11.70;99.90;;;;;;5034146;28;20206;-78
2023/12/25 08:32:29;;;;;;;1999.90;999.90;;;11.70;99.90;;;;;;5034431;28;20601;-76
2023/12/25 08:34:55;;;;;;;1999.90;999.90;;;11.80;99.90;;;;;;5033212;28;20450;-75
2023/12/25 08:37:21;;;;;;;1999.90;999.90;;;11.90;99.90;;;;;;5032589;28;20922;-76
2023/12/25 08:39:46;;;;;;;1999.90;999.90;;;11.90;99.90;;;;;;5033977;28;20169;-78
2023/12/25 08:42:12;;;;;;;1999.90;999.90;;;12.00;99.90;;;;;;5034128;28;20268;-78
2023/12/25 08:44:37;;;;;;;1999.90;999.90;;;12.00;99.90;;;;;;5034837;28;20184;-76
2023/12/25 08:47:03;;;;;;;1999.90;999.90;;;12.00;99.90;;;;;;5034934;28;20203;-75
2023/12/25 08:49:29;;;;;;;1999.90;999.90;;;12.10;99.90;;;;;;5029812;28;20237;-75
2023/12/25 08:51:55;;;;;;;1999.90;999.90;;;12.10;99.90;;;;;;5040403;28;20204;-75
2023/12/25 08:54:20;;;;;;;1999.90;999.90;;;12.10;99.90;;;;;;5044105;28;21051;-78
2023/12/25 08:56:47;;;;;;;1999.90;999.90;;;12.10;99.90;;;;;;5035423;28;20267;-77
2023/12/25 08:59:13;;;;;;;1999.90;999.90;;;12.20;99.90;;;;;;5035263;28;20172;-76
2023/12/25 09:01:39;;;;;;;1999.90;999.90;;;12.20;99.90;;;;;;5035340;28;20854;-78
2023/12/25 09:04:06;;;;;;;1999.90;999.90;;;12.10;99.90;;;;;;5036213;28;20167;-76
2023/12/25 09:06:32;;;;;;;1999.90;999.90;;;12.20;99.90;;;;;;5035742;28;20629;-77
2023/12/25 09:08:57;;;;;;;1999.90;999.90;;;12.20;99.90;;;;;;5035249;28;20426;-77
2023/12/25 09:11:23;;;;;;;1999.90;999.90;;;12.10;99.90;;;;;;5034089;28;20918;-78
2023/12/25 09:13:49;;;;;;;1999.90;999.90;;;12.10;99.90;;;;;;5034009;28;20261;-78
2023/12/25 09:16:14;;;;;;;1999.90;999.90;;;12.20;99.90;;;;;;5033887;28;20167;-77
2023/12/25 09:18:40;;;;;;;1999.90;999.90;;;12.20;99.90;;;;;;5035544;28;20254;-78
2023/12/25 09:21:05;;;;;;;1999.90;999.90;;;12.20;99.90;;;;;;5035463;28;20580;-76
2023/12/25 09:23:31;;;;;;;1999.90;999.90;;;12.10;99.90;;;;;;5035136;28;20165;-77
2023/12/25 09:25:57;;;;;;;1999.90;999.90;;;12.20;99.90;;;;;;5032452;28;20222;-77
2023/12/25 09:28:23;;;;;;;1999.90;999.90;;;12.20;99.90;;;;;;5031530;28;20547;-77
2023/12/25 09:30:48;;;;;;;1999.90;999.90;;;12.20;99.90;;;;;;5031224;28;20166;-76
2023/12/25 09:33:14;;;;;;;1999.90;999.90;;;12.30;99.90;;;;;;5031374;28;20415;-76
2023/12/25 09:35:40;;;;;;;1999.90;999.90;;;12.30;99.90;;;;;;5031270;28;20279;-76
2023/12/25 09:38:05;;;;;;;1999.90;999.90;;;12.30;99.90;;;;;;5031442;28;20169;-76
2023/12/25 09:40:31;;;;;;;1999.90;999.90;;;12.00;99.90;;;;;;5033869;28;20399;-75
2023/12/25 09:42:59;;;;;;;1999.90;999.90;;;12.30;99.90;;;;;;5035032;28;20200;-77
2023/12/25 09:45:26;;;;;;;1999.90;999.90;;;12.30;99.90;;;;;;5036786;28;20411;-76
2023/12/25 09:47:52;;;;;;;1999.90;999.90;;;12.30;99.90;;;;;;5039050;28;20404;-77
2023/12/25 09:50:21;;;;;;;1999.90;999.90;;;12.30;99.90;;;;;;5035744;28;20416;-79
2023/12/25 09:52:47;;;;;;;1999.90;999.90;;;12.30;99.90;;;;;;5037050;28;20516;-78
2023/12/25 09:55:13;;;;;;;1999.90;999.90;;;12.30;99.90;;;;;;5037421;28;20549;-79
2023/12/25 09:57:40;;;;;;;1999.90;999.90;;;12.30;99.90;;;;;;5037864;28;20187;-79
2023/12/25 10:00:08;;;;;;;1999.90;999.90;;;12.30;99.90;;;;;;5037727;28;20640;-79
2023/12/25 10:02:37;;;;;;;1999.90;999.90;;;12.30;99.90;;;;;;5043828;28;20450;-78
2023/12/25 10:05:04;;;;;;;1999.90;999.90;;;12.40;99.90;;;;;;5063973;28;20421;-76
2023/12/25 10:07:30;;;;;;;1999.90;999.90;;;12.30;99.90;;;;;;5060573;28;20415;-78
2023/12/25 10:09:57;;;;;;;1999.90;999.90;;;12.30;99.90;;;;;;5036548;28;20507;-78
2023/12/25 10:12:23;;;;;;;1999.90;999.90;;;12.30;99.90;;;;;;5035215;28;20191;-76
2023/12/25 10:14:49;;;;;;;1999.90;999.90;;;12.40;99.90;;;;;;5035869;28;20456;-76
2023/12/25 10:17:15;;;;;;;1999.90;999.90;;;12.40;99.90;;;;;;5035637;28;20215;-78
2023/12/25 10:19:54;;;;;;;1999.90;999.90;;;12.40;99.90;;;;;;5035625;28;20169;-77
2023/12/25 10:22:31;;;;;;;1999.90;999.90;;;12.40;99.90;;;;;;5035123;28;20444;-79
2023/12/25 10:25:11;;;;;;;1999.90;999.90;;;12.40;99.90;;;;;;5036265;28;20553;-77
2023/12/25 10:27:43;;;;;;;1999.90;999.90;;;12.40;99.90;;;;;;5035532;28;20490;-78
2023/12/25 10:30:21;;;;;;;1999.90;999.90;;;12.40;99.90;;;;;;5035654;28;20778;-77
2023/12/25 10:32:47;;;;;;;1999.90;999.90;;;12.40;99.90;;;;;;5035885;28;20430;-79
2023/12/25 10:35:15;;;;;;;1999.90;999.90;;;12.50;99.90;;;;;;5036123;28;20819;-76
2023/12/25 10:37:42;;;;;;;1999.90;999.90;;;12.40;99.90;;;;;;5036023;28;20406;-78
2023/12/25 10:40:21;;;;;;;1999.90;999.90;;;12.50;99.90;;;;;;5035799;28;20414;-78
2023/12/25 10:42:51;;;;;;;1999.90;999.90;;;12.50;99.90;;;;;;5035541;28;20506;-78
2023/12/25 10:45:24;;;;;;;1999.90;999.90;;;12.60;99.90;;;;;;5034493;28;20407;-78
2023/12/25 10:47:52;;;;;;;1999.90;999.90;;;12.60;99.90;;;;;;5036259;28;20814;-78
2023/12/25 10:50:27;;;;;;;1999.90;999.90;;;12.60;99.90;;;;;;5034858;28;20864;-76
2023/12/25 10:52:57;;;;;;;1999.90;999.90;;;12.50;99.90;;;;;;5035323;28;20426;-78
2023/12/25 10:55:42;;;;;;;1999.90;999.90;;;12.60;99.90;;;;;;5035292;28;20539;-79
2023/12/25 10:58:11;;;;;;;1999.90;999.90;;;12.60;99.90;;;;;;5035204;28;20399;-76
2023/12/25 11:00:59;;;;;;;1999.90;999.90;;;12.40;99.90;;;;;;5034514;28;20405;-78
2023/12/25 11:03:25;;;;;;;1999.90;999.90;;;12.60;99.90;;;;;;5033271;28;20408;-76
2023/12/25 11:05:51;;;;;;;1999.90;999.90;;;12.60;99.90;;;;;;5032433;28;20403;-76
2023/12/25 11:08:20;;;;;;;1999.90;999.90;;;12.60;99.90;;;;;;5026830;28;20478;-76
2023/12/25 11:10:46;;;;;;;1999.90;999.90;;;12.50;99.90;;;;;;5031393;28;20263;-79
2023/12/25 11:13:13;;;;;;;1999.90;999.90;;;12.70;99.90;;;;;;5033958;28;21002;-77
2023/12/25 11:15:39;;;;;;;1999.90;999.90;;;12.80;99.90;;;;;;5032579;28;20198;-78
2023/12/25 11:18:07;;;;;;;1999.90;999.90;;;12.80;99.90;;;;;;5031179;28;20462;-78
2023/12/25 11:20:33;;;;;;;1999.90;999.90;;;12.90;99.90;;;;;;5018839;28;20419;-79
2023/12/25 11:23:02;;;;;;;1999.90;999.90;;;12.90;99.90;;;;;;5015318;28;20403;-78
2023/12/25 11:25:33;;;;;;;1999.90;999.90;;;12.90;99.90;;;;;;5027839;28;20268;-77
2023/12/25 11:27:58;;;;;;;1999.90;999.90;;;12.90;99.90;;;;;;5030918;28;20838;-77
2023/12/25 11:30:25;;;;;;;1999.90;999.90;;;12.90;99.90;;;;;;5031333;28;20426;-77
2023/12/25 11:32:51;;;;;;;1999.90;999.90;;;13.00;99.90;;;;;;5028798;28;20248;-77
2023/12/25 11:35:32;;;;;;;1999.90;999.90;;;13.00;99.90;;;;;;5030546;28;20551;-76
2023/12/25 11:38:33;;;;;;;1999.90;999.90;;;13.00;99.90;;;;;;5026177;28;20493;-78
2023/12/25 11:41:02;;;;;;;1999.90;999.90;;;12.90;99.90;;;;;;4966748;28;20440;-79
2023/12/25 11:43:30;;;;;;;1999.90;999.90;;;12.90;99.90;;;;;;5009026;28;20407;-78
2023/12/25 11:45:56;;;;;;;1999.90;999.90;;;12.90;99.90;;;;;;5016109;28;20499;-79
2023/12/25 11:48:23;;;;;;;1999.90;999.90;;;12.90;99.90;;;;;;5015834;28;20425;-78
2023/12/25 11:50:59;;;;;;;1999.90;999.90;;;13.00;99.90;;;;;;5015309;28;20171;-78
2023/12/25 11:53:40;;;;;;;1999.90;999.90;;;12.90;99.90;;;;;;5015719;28;20399;-78
2023/12/25 11:56:07;;;;;;;1999.90;999.90;;;12.90;99.90;;;;;;5015817;28;20972;-79